createdAt,value
2023-04-09T00:02:17.936Z,9.90
2023-04-09T00:04:45.621Z,10.00
2023-04-09T00:07:13.102Z,9.90
2023-04-09T00:09:40.754Z,10.00
2023-04-09T00:12:09.671Z,10.00
2023-04-09T00:14:37.106Z,10.00
2023-04-09T00:17:04.427Z,10.80
2023-04-09T00:19:31.812Z,9.90
2023-04-09T00:21:59.420Z,9.90
2023-04-09T00:24:26.764Z,9.90
2023-04-09T00:26:54.369Z,9.90
2023-04-09T00:29:21.821Z,9.90
2023-04-09T00:31:49.238Z,9.80
2023-04-09T00:34:16.600Z,9.80
2023-04-09T00:36:43.865Z,9.70
2023-04-09T00:39:11.223Z,9.70
2023-04-09T00:41:38.662Z,9.60
2023-04-09T00:44:06.256Z,9.50
2023-04-09T00:46:36.500Z,9.50
2023-04-09T00:49:04.031Z,9.40
2023-04-09T00:51:31.715Z,9.40
2023-04-09T00:53:59.105Z,9.50
2023-04-09T00:56:27.291Z,9.40
2023-04-09T00:58:54.733Z,9.40
2023-04-09T01:01:22.147Z,9.30
2023-04-09T01:03:49.682Z,9.20
2023-04-09T01:06:49.285Z,9.30
2023-04-09T01:09:33.639Z,9.30
2023-04-09T01:12:34.316Z,9.20
2023-04-09T01:15:24.544Z,9.30
2023-04-09T01:18:05.543Z,9.20
2023-04-09T01:20:40.809Z,9.20
2023-04-09T01:23:10.872Z,9.20
2023-04-09T01:25:46.350Z,9.20
2023-04-09T01:28:13.647Z,9.10
2023-04-09T01:30:43.847Z,9.10
2023-04-09T01:33:13.805Z,9.10
2023-04-09T01:35:44.712Z,9.00
2023-04-09T01:38:13.998Z,9.00
2023-04-09T01:40:44.262Z,8.90
2023-04-09T01:43:13.492Z,8.80
2023-04-09T01:45:42.028Z,8.80
2023-04-09T01:48:09.927Z,8.80
2023-04-09T01:50:39.111Z,8.70
2023-04-09T01:53:07.083Z,8.70
2023-04-09T01:55:34.701Z,8.70
2023-04-09T01:58:02.006Z,8.70
2023-04-09T02:00:37.134Z,8.70
2023-04-09T02:03:23.901Z,8.70
2023-04-09T02:06:20.717Z,8.60
2023-04-09T02:08:48.901Z,8.60
2023-04-09T02:11:16.654Z,8.60
2023-04-09T02:13:45.850Z,8.60
2023-04-09T02:16:16.153Z,8.60
2023-04-09T02:18:43.862Z,8.60
2023-04-09T02:21:13.960Z,8.60
2023-04-09T02:23:41.444Z,8.60
2023-04-09T02:26:08.845Z,8.50
2023-04-09T02:28:36.348Z,8.50
2023-04-09T02:31:04.128Z,8.50
2023-04-09T02:33:31.695Z,8.40
2023-04-09T02:35:59.120Z,8.50
2023-04-09T02:38:26.765Z,8.50
2023-04-09T02:40:54.106Z,8.40
2023-04-09T02:43:21.413Z,8.40
2023-04-09T02:45:49.910Z,8.50
2023-04-09T02:48:17.263Z,8.40
2023-04-09T02:50:44.626Z,8.40
2023-04-09T02:53:11.972Z,8.40
2023-04-09T02:55:39.346Z,8.40
2023-04-09T02:58:06.691Z,8.40
2023-04-09T03:00:34.158Z,8.40
2023-04-09T03:03:01.660Z,8.20
2023-04-09T03:05:30.662Z,8.40
2023-04-09T03:07:59.217Z,8.40
2023-04-09T03:10:26.618Z,8.40
2023-04-09T03:12:54.071Z,8.30
2023-04-09T03:15:22.654Z,8.30
2023-04-09T03:17:50.080Z,8.30
2023-04-09T03:20:18.860Z,8.30
2023-04-09T03:22:47.220Z,8.30
2023-04-09T03:25:14.844Z,8.20
2023-04-09T03:27:42.508Z,7.90
2023-04-09T03:30:10.983Z,8.20
2023-04-09T03:32:38.661Z,8.20
2023-04-09T03:35:06.288Z,8.20
2023-04-09T03:37:34.651Z,8.90
2023-04-09T03:40:02.498Z,8.20
2023-04-09T03:42:30.107Z,8.20
2023-04-09T03:44:58.012Z,8.10
2023-04-09T03:47:25.568Z,8.10
2023-04-09T03:49:52.981Z,8.10
2023-04-09T03:52:20.586Z,8.20
2023-04-09T03:54:48.508Z,8.10
2023-04-09T03:57:16.129Z,8.10
2023-04-09T03:59:45.017Z,8.10
2023-04-09T04:02:12.606Z,8.10
2023-04-09T04:04:40.544Z,8.10
2023-04-09T04:07:08.753Z,8.00
2023-04-09T04:09:36.265Z,8.00
2023-04-09T04:12:04.311Z,8.00
2023-04-09T04:14:33.844Z,8.00
2023-04-09T04:17:02.227Z,8.00
2023-04-09T04:19:31.925Z,7.90
2023-04-09T04:21:59.263Z,7.90
2023-04-09T04:24:27.325Z,7.90
2023-04-09T04:26:54.665Z,7.90
2023-04-09T04:29:22.199Z,7.90
2023-04-09T04:31:49.669Z,7.90
2023-04-09T04:34:17.003Z,7.90
2023-04-09T04:36:44.532Z,7.90
2023-04-09T04:39:12.514Z,7.90
2023-04-09T04:41:39.803Z,7.90
2023-04-09T04:44:07.194Z,7.90
2023-04-09T04:46:34.567Z,8.20
2023-04-09T04:49:02.907Z,7.90
2023-04-09T04:51:32.575Z,7.90
2023-04-09T04:53:59.892Z,8.00
2023-04-09T04:56:27.192Z,7.90
2023-04-09T04:59:00.025Z,8.00
2023-04-09T05:01:27.497Z,8.00
2023-04-09T05:03:54.957Z,8.00
2023-04-09T05:06:22.365Z,8.00
2023-04-09T05:08:50.217Z,8.00
2023-04-09T05:11:20.103Z,8.00
2023-04-09T05:13:47.508Z,8.00
2023-04-09T05:16:19.733Z,8.00
2023-04-09T05:18:57.436Z,8.00
2023-04-09T05:21:26.208Z,8.10
2023-04-09T05:23:53.700Z,8.10
2023-04-09T05:26:21.841Z,8.20
2023-04-09T05:28:52.038Z,8.10
2023-04-09T05:31:19.677Z,8.00
2023-04-09T05:33:48.570Z,8.20
2023-04-09T05:36:19.917Z,8.20
2023-04-09T05:38:47.962Z,8.10
2023-04-09T05:41:15.749Z,8.20
2023-04-09T05:43:43.405Z,8.20
2023-04-09T05:46:12.662Z,8.20
2023-04-09T05:48:40.330Z,8.20
2023-04-09T05:51:07.890Z,8.30
2023-04-09T05:53:35.536Z,8.30
2023-04-09T05:56:03.154Z,8.30
2023-04-09T05:58:30.419Z,8.30
2023-04-09T06:00:57.901Z,8.30
2023-04-09T06:03:26.550Z,7.90
2023-04-09T06:05:53.929Z,8.40
2023-04-09T06:08:25.617Z,8.50
2023-04-09T06:10:53.910Z,8.50
2023-04-09T06:13:21.668Z,8.50
2023-04-09T06:15:50.141Z,8.50
2023-04-09T06:18:19.120Z,8.50
2023-04-09T06:20:46.749Z,6.40
2023-04-09T06:23:14.095Z,8.60
2023-04-09T06:25:41.671Z,8.60
2023-04-09T06:28:12.273Z,8.60
2023-04-09T06:30:39.611Z,8.60
2023-04-09T06:33:07.247Z,8.60
2023-04-09T06:35:35.884Z,8.70
2023-04-09T06:38:03.244Z,8.70
2023-04-09T06:40:30.861Z,8.60
2023-04-09T06:42:59.467Z,8.60
2023-04-09T06:45:28.022Z,8.70
2023-04-09T06:47:56.584Z,8.70
2023-04-09T06:50:24.311Z,8.70
2023-04-09T06:52:52.724Z,8.80
2023-04-09T06:55:20.616Z,8.80
2023-04-09T06:57:48.027Z,8.80
2023-04-09T07:00:15.864Z,8.80
2023-04-09T07:02:43.565Z,8.90
2023-04-09T07:05:11.147Z,8.90
2023-04-09T07:07:39.233Z,8.70
2023-04-09T07:10:07.559Z,9.00
2023-04-09T07:12:38.173Z,9.10
2023-04-09T07:15:07.864Z,9.10
2023-04-09T07:17:35.969Z,9.20
2023-04-09T07:20:05.077Z,9.20
2023-04-09T07:22:32.422Z,9.20
2023-04-09T07:24:59.978Z,9.20
2023-04-09T07:27:28.909Z,9.20
2023-04-09T07:29:57.858Z,9.10
2023-04-09T07:32:26.292Z,9.10
2023-04-09T07:34:54.959Z,9.10
2023-04-09T07:37:22.315Z,9.00
2023-04-09T07:39:51.495Z,9.10
2023-04-09T07:42:19.491Z,9.00
2023-04-09T07:44:47.548Z,9.10
2023-04-09T07:47:15.824Z,9.10
2023-04-09T07:49:43.503Z,9.20
2023-04-09T07:52:10.866Z,9.20
2023-04-09T07:54:38.272Z,9.30
2023-04-09T07:57:07.875Z,9.30
2023-04-09T07:59:36.436Z,9.40
2023-04-09T08:02:04.053Z,9.40
2023-04-09T08:04:32.546Z,9.50
2023-04-09T08:07:00.143Z,9.50
2023-04-09T08:09:27.931Z,9.60
2023-04-09T08:11:55.907Z,9.60
2023-04-09T08:14:23.280Z,9.60
2023-04-09T08:16:51.261Z,9.50
2023-04-09T08:19:20.173Z,9.40
2023-04-09T08:21:49.710Z,9.40
2023-04-09T08:24:17.473Z,9.40
2023-04-09T08:26:45.462Z,9.50
2023-04-09T08:29:13.950Z,9.40
2023-04-09T08:31:42.590Z,9.40
2023-04-09T08:34:10.108Z,9.40
2023-04-09T08:36:37.953Z,9.40
2023-04-09T08:39:05.628Z,9.40
2023-04-09T08:41:33.587Z,9.50
2023-04-09T08:44:01.155Z,9.50
2023-04-09T08:46:30.133Z,9.60
2023-04-09T08:48:57.516Z,9.60
2023-04-09T08:51:25.233Z,9.70
2023-04-09T08:54:03.262Z,9.70
2023-04-09T08:56:32.866Z,9.70
2023-04-09T08:59:00.381Z,10.30
2023-04-09T09:01:32.769Z,9.90
2023-04-09T09:04:05.127Z,9.90
2023-04-09T09:06:37.620Z,10.00
2023-04-09T09:09:13.859Z,10.10
2023-04-09T09:11:46.924Z,10.20
2023-04-09T09:14:16.968Z,11.30
2023-04-09T09:16:56.770Z,10.30
2023-04-09T09:19:27.132Z,10.30
2023-04-09T09:21:58.613Z,10.40
2023-04-09T09:24:27.644Z,10.80
2023-04-09T09:26:55.854Z,10.50
2023-04-09T09:29:23.237Z,10.50
2023-04-09T09:31:54.166Z,10.60
2023-04-09T09:34:23.821Z,10.60
2023-04-09T09:36:51.347Z,10.60
2023-04-09T09:39:18.932Z,10.70
2023-04-09T09:41:47.454Z,10.70
2023-04-09T09:44:32.162Z,11.30
2023-04-09T09:47:00.778Z,10.70
2023-04-09T09:49:28.669Z,10.70
2023-04-09T09:51:59.646Z,10.80
2023-04-09T09:54:31.666Z,10.90
2023-04-09T09:57:04.782Z,10.90
2023-04-09T09:59:37.685Z,11.00
2023-04-09T10:02:07.733Z,11.10
2023-04-09T10:04:36.313Z,11.20
2023-04-09T10:07:07.301Z,11.30
2023-04-09T10:09:55.817Z,11.50
2023-04-09T10:12:26.463Z,11.70
2023-04-09T10:14:56.361Z,11.80
2023-04-09T10:17:25.100Z,12.00
2023-04-09T10:20:08.128Z,12.10
2023-04-09T10:22:36.448Z,12.20
2023-04-09T10:25:07.377Z,12.20
2023-04-09T10:27:34.985Z,12.20
2023-04-09T10:30:02.774Z,12.30
2023-04-09T10:32:36.439Z,12.10
2023-04-09T10:35:04.616Z,12.30
2023-04-09T10:37:32.018Z,12.30
2023-04-09T10:40:03.495Z,12.30
2023-04-09T10:42:35.345Z,12.30
2023-04-09T10:45:11.580Z,12.30
2023-04-09T10:47:41.784Z,12.30
2023-04-09T10:50:25.764Z,12.30
2023-04-09T10:52:55.073Z,12.20
2023-04-09T10:55:42.540Z,12.10
2023-04-09T10:58:13.854Z,12.20
2023-04-09T11:00:46.662Z,12.20
2023-04-09T11:03:32.786Z,12.20
2023-04-09T11:06:09.311Z,12.20
2023-04-09T11:08:38.472Z,12.20
2023-04-09T11:11:07.683Z,12.30
2023-04-09T11:13:35.084Z,12.20
2023-04-09T11:16:07.020Z,12.20
2023-04-09T11:18:37.233Z,12.00
2023-04-09T11:21:05.044Z,12.20
2023-04-09T11:23:41.330Z,12.20
2023-04-09T11:26:10.399Z,12.30
2023-04-09T11:28:41.132Z,12.30
2023-04-09T11:31:09.773Z,12.40
2023-04-09T11:33:38.846Z,12.40
2023-04-09T11:36:20.237Z,12.40
2023-04-09T11:38:50.316Z,12.40
2023-04-09T11:41:18.074Z,12.30
2023-04-09T11:43:45.691Z,12.40
2023-04-09T11:46:13.183Z,12.50
2023-04-09T11:48:44.764Z,12.60
2023-04-09T11:51:13.415Z,12.60
2023-04-09T11:53:41.155Z,12.60
2023-04-09T11:56:08.527Z,12.60
2023-04-09T11:58:36.381Z,12.60
2023-04-09T12:01:03.787Z,12.70
2023-04-09T12:03:35.004Z,12.60
2023-04-09T12:06:07.281Z,12.60
2023-04-09T12:08:35.695Z,12.70
2023-04-09T12:11:10.633Z,12.70
2023-04-09T12:13:43.349Z,12.70
2023-04-09T12:16:15.876Z,12.80
2023-04-09T12:18:43.360Z,12.80
2023-04-09T12:21:11.184Z,12.80
2023-04-09T12:23:39.570Z,12.80
2023-04-09T12:26:08.243Z,12.80
2023-04-09T12:28:35.855Z,12.90
2023-04-09T12:31:03.603Z,13.00
2023-04-09T12:33:31.204Z,13.00
2023-04-09T12:35:58.658Z,13.00
2023-04-09T12:38:26.913Z,13.00
2023-04-09T12:40:55.563Z,13.10
2023-04-09T12:43:22.981Z,13.10
2023-04-09T12:45:50.407Z,13.10
2023-04-09T12:48:17.784Z,13.10
2023-04-09T12:50:45.666Z,13.10
2023-04-09T12:53:13.049Z,13.20
2023-04-09T12:55:42.672Z,13.20
2023-04-09T12:58:10.328Z,13.30
2023-04-09T13:00:38.778Z,13.30
2023-04-09T13:03:06.724Z,13.40
2023-04-09T13:05:35.811Z,13.40
2023-04-09T13:08:03.643Z,13.40
2023-04-09T13:10:31.576Z,13.40
2023-04-09T13:12:58.994Z,13.50
2023-04-09T13:15:26.299Z,13.60
2023-04-09T13:17:53.756Z,13.60
2023-04-09T13:20:21.482Z,13.60
2023-04-09T13:22:49.287Z,13.70
2023-04-09T13:25:18.190Z,13.70
2023-04-09T13:27:45.764Z,13.70
2023-04-09T13:30:13.333Z,13.70
2023-04-09T13:32:41.336Z,13.70
2023-04-09T13:35:10.333Z,13.70
2023-04-09T13:37:38.655Z,13.70
2023-04-09T13:40:08.964Z,13.70
2023-04-09T13:42:37.615Z,13.70
2023-04-09T13:45:06.010Z,13.70
2023-04-09T13:47:36.136Z,14.20
2023-04-09T13:50:03.941Z,13.80
2023-04-09T13:52:32.674Z,13.90
2023-04-09T13:55:00.042Z,13.80
2023-04-09T13:57:27.463Z,13.90
2023-04-09T13:59:56.260Z,13.90
2023-04-09T14:02:23.916Z,14.00
2023-04-09T14:04:51.526Z,14.00
2023-04-09T14:07:18.850Z,14.10
2023-04-09T14:09:46.678Z,14.10
2023-04-09T14:12:14.016Z,14.10
2023-04-09T14:14:42.096Z,14.20
2023-04-09T14:17:10.136Z,14.30
2023-04-09T14:19:39.286Z,14.30
2023-04-09T14:22:08.952Z,14.30
2023-04-09T14:24:40.464Z,14.40
2023-04-09T14:27:08.944Z,14.30
2023-04-09T14:29:37.180Z,14.40
2023-04-09T14:32:04.578Z,14.40
2023-04-09T14:34:32.298Z,14.40
2023-04-09T14:36:59.832Z,14.50
2023-04-09T14:39:27.509Z,14.50
2023-04-09T14:41:57.175Z,14.50
2023-04-09T14:44:26.024Z,14.50
2023-04-09T14:46:55.125Z,14.50
2023-04-09T14:49:24.044Z,14.50
2023-04-09T14:51:51.584Z,14.50
2023-04-09T14:54:18.906Z,14.50
2023-04-09T14:56:46.542Z,14.50
2023-04-09T14:59:13.969Z,14.60
2023-04-09T15:01:41.408Z,14.60
2023-04-09T15:04:08.994Z,14.60
2023-04-09T15:06:36.696Z,14.70
2023-04-09T15:09:03.986Z,14.70
2023-04-09T15:11:31.358Z,14.70
2023-04-09T15:14:00.022Z,14.70
2023-04-09T15:16:28.811Z,14.70
2023-04-09T15:18:59.917Z,14.70
2023-04-09T15:21:28.434Z,14.70
2023-04-09T15:23:59.271Z,14.80
2023-04-09T15:26:27.442Z,15.00
2023-04-09T15:29:04.352Z,15.10
2023-04-09T15:31:33.885Z,15.00
2023-04-09T15:34:01.745Z,15.00
2023-04-09T15:36:33.467Z,15.00
2023-04-09T15:39:01.979Z,15.00
2023-04-09T15:41:32.138Z,15.00
2023-04-09T15:43:59.540Z,15.00
2023-04-09T15:46:26.815Z,15.20
2023-04-09T15:48:54.396Z,14.90
2023-04-09T15:51:23.150Z,14.90
2023-04-09T15:53:53.063Z,14.90
2023-04-09T15:56:20.402Z,14.90
2023-04-09T15:58:48.383Z,15.20
2023-04-09T16:01:16.187Z,14.90
2023-04-09T16:03:43.559Z,14.90
2023-04-09T16:06:14.808Z,14.90
2023-04-09T16:08:42.232Z,14.90
2023-04-09T16:11:11.078Z,14.90
2023-04-09T16:13:38.620Z,14.90
2023-04-09T16:16:07.137Z,14.90
2023-04-09T16:18:34.881Z,14.40
2023-04-09T16:21:02.274Z,14.90
2023-04-09T16:23:31.059Z,14.80
2023-04-09T16:25:58.504Z,14.80
2023-04-09T16:28:26.614Z,14.80
2023-04-09T16:30:53.969Z,14.70
2023-04-09T16:33:23.828Z,14.70
2023-04-09T16:35:51.311Z,14.70
2023-04-09T16:38:18.722Z,14.60
2023-04-09T16:40:47.116Z,14.60
2023-04-09T16:43:14.842Z,14.50
2023-04-09T16:45:42.294Z,14.50
2023-04-09T16:48:12.464Z,14.50
2023-04-09T16:50:42.719Z,14.50
2023-04-09T16:53:10.133Z,14.50
2023-04-09T16:55:37.565Z,14.50
2023-04-09T16:58:04.936Z,14.40
2023-04-09T17:00:32.945Z,14.40
2023-04-09T17:03:03.121Z,14.40
2023-04-09T17:05:30.860Z,14.30
2023-04-09T17:07:58.403Z,14.30
2023-04-09T17:10:25.778Z,14.20
2023-04-09T17:12:53.146Z,14.10
2023-04-09T17:15:21.753Z,14.10
2023-04-09T17:17:51.356Z,13.90
2023-04-09T17:20:19.728Z,14.20
2023-04-09T17:22:47.091Z,14.00
2023-04-09T17:25:14.521Z,14.00
2023-04-09T17:27:44.069Z,14.00
2023-04-09T17:30:12.487Z,13.90
2023-04-09T17:32:40.580Z,13.80
2023-04-09T17:35:09.724Z,13.80
2023-04-09T17:37:38.232Z,13.80
2023-04-09T17:40:06.517Z,13.80
2023-04-09T17:42:34.022Z,13.80
2023-04-09T17:45:01.824Z,13.70
2023-04-09T17:47:30.181Z,13.70
2023-04-09T17:49:57.544Z,13.60
2023-04-09T17:52:26.095Z,13.60
2023-04-09T17:54:53.629Z,13.50
2023-04-09T17:57:21.202Z,13.50
2023-04-09T17:59:49.033Z,13.40
2023-04-09T18:02:16.521Z,13.40
2023-04-09T18:04:44.133Z,13.40
2023-04-09T18:07:11.704Z,13.30
2023-04-09T18:09:40.652Z,13.30
2023-04-09T18:12:08.630Z,13.30
2023-04-09T18:14:38.990Z,13.20
2023-04-09T18:17:07.610Z,13.20
2023-04-09T18:19:34.934Z,13.20
2023-04-09T18:22:02.435Z,13.40
2023-04-09T18:24:30.999Z,13.10
2023-04-09T18:26:59.311Z,13.00
2023-04-09T18:29:27.802Z,13.00
2023-04-09T18:31:58.911Z,13.00
2023-04-09T18:34:26.353Z,12.90
2023-04-09T18:36:57.072Z,12.90
2023-04-09T18:39:24.530Z,12.90
2023-04-09T18:41:52.338Z,12.80
2023-04-09T18:44:19.636Z,12.60
2023-04-09T18:46:47.434Z,12.80
2023-04-09T18:49:14.998Z,12.80
2023-04-09T18:51:42.515Z,12.80
2023-04-09T18:54:09.854Z,12.80
2023-04-09T18:56:37.149Z,12.70
2023-04-09T18:59:04.452Z,12.00
2023-04-09T19:01:32.093Z,12.70
2023-04-09T19:03:59.671Z,12.60
2023-04-09T19:06:28.013Z,12.70
2023-04-09T19:08:58.427Z,12.80
2023-04-09T19:11:27.181Z,12.60
2023-04-09T19:13:55.358Z,12.50
2023-04-09T19:16:27.597Z,12.60
2023-04-09T19:18:55.519Z,12.30
2023-04-09T19:21:23.786Z,12.50
2023-04-09T19:24:39.898Z,12.50
2023-04-09T19:27:28.153Z,13.10
2023-04-09T19:29:58.765Z,12.50
2023-04-09T19:32:26.298Z,12.90
2023-04-09T19:34:53.643Z,12.40
2023-04-09T19:37:21.309Z,12.40
2023-04-09T19:44:04.141Z,12.20
2023-04-09T19:47:17.378Z,12.30
2023-04-09T19:50:02.196Z,12.30
2023-04-09T19:52:29.554Z,12.30
2023-04-09T19:54:57.122Z,12.80
2023-04-09T20:01:43.983Z,12.20
2023-04-09T20:04:12.170Z,12.20
2023-04-09T20:06:44.808Z,12.20
2023-04-09T20:09:13.594Z,12.30
2023-04-09T20:11:42.151Z,12.20
2023-04-09T20:14:12.242Z,13.50
2023-04-09T20:16:39.763Z,12.20
2023-04-09T20:19:07.207Z,12.10
2023-04-09T20:21:34.503Z,12.10
2023-04-09T20:24:02.684Z,12.10
2023-04-09T20:26:31.009Z,12.10
2023-04-09T20:28:59.211Z,12.10
2023-04-09T20:31:28.077Z,12.10
2023-04-09T20:33:55.468Z,12.30
2023-04-09T20:40:35.697Z,12.10
2023-04-09T21:02:58.938Z,12.00
2023-04-09T21:10:16.862Z,12.00
2023-04-09T21:20:57.808Z,11.80
2023-04-09T21:23:25.297Z,11.80
2023-04-09T21:25:54.316Z,11.80
2023-04-09T21:28:26.466Z,11.80
2023-04-09T21:30:55.476Z,11.80
2023-04-09T21:36:09.163Z,11.80
2023-04-09T21:38:36.656Z,11.80
2023-04-09T21:41:04.231Z,11.80
2023-04-09T21:43:53.226Z,11.80
2023-04-09T21:47:39.200Z,11.80
2023-04-09T21:55:10.353Z,11.80
2023-04-09T21:57:39.776Z,11.80
2023-04-09T22:04:16.775Z,11.80
2023-04-09T22:06:47.016Z,11.70
2023-04-09T22:09:14.356Z,11.70
2023-04-09T22:11:42.627Z,11.70
2023-04-09T22:14:10.577Z,11.70
2023-04-09T22:16:38.158Z,11.90
2023-04-09T22:19:05.680Z,11.70
2023-04-09T22:21:33.256Z,11.70
2023-04-09T22:24:00.804Z,11.10
2023-04-09T22:26:29.469Z,11.70
2023-04-09T22:28:57.028Z,11.70
2023-04-09T22:31:24.490Z,11.70
2023-04-09T22:33:51.965Z,11.70
2023-04-09T22:36:19.540Z,11.70
2023-04-09T22:38:46.885Z,11.40
2023-04-09T22:41:15.989Z,11.70
2023-04-09T22:43:46.128Z,11.60
2023-04-09T22:46:13.449Z,11.70
2023-04-09T22:48:55.653Z,11.70
2023-04-09T22:51:26.172Z,11.80
2023-04-09T22:55:35.571Z,12.80
2023-04-09T23:08:06.820Z,11.70
2023-04-09T23:10:34.275Z,11.60
2023-04-09T23:13:01.999Z,11.60
2023-04-09T23:15:29.346Z,11.60
2023-04-09T23:17:57.020Z,11.50
2023-04-09T23:20:24.754Z,11.60
2023-04-09T23:22:58.594Z,11.60
2023-04-09T23:25:27.334Z,11.80
2023-04-09T23:27:54.803Z,11.60
2023-04-09T23:30:23.707Z,11.60
2023-04-09T23:32:56.957Z,11.60
2023-04-09T23:35:24.925Z,11.60
2023-04-09T23:37:52.473Z,11.60
2023-04-09T23:40:21.432Z,11.60
2023-04-09T23:42:50.315Z,11.60
2023-04-09T23:45:17.793Z,11.60
2023-04-09T23:47:46.069Z,11.60
2023-04-09T23:50:13.614Z,11.60
2023-04-09T23:52:47.485Z,11.60
2023-04-09T23:55:15.505Z,11.60
2023-04-09T23:57:43.731Z,11.90
